Time;durP1;ratioP1;P1;durP2;ratioP2;P2;SDS_P1;SDS_P2;PMS_P1;PMS_P2;Temp;Humidity;BMP_temperature;BMP_pressure;BME280_temperature;BME280_humidity;BME280_pressure;Samples;Min_cycle;Max_cycle;Signal;HPM_P1;HPM_P2
2022/03/25 00:02:13;;;;;;;46.60;20.67;;;;;;;;;;6235754;28;20076;-80
2022/03/25 00:05:15;;;;;;;48.10;19.15;;;;;;;;;;6237623;28;20047;-79
2022/03/25 00:08:17;;;;;;;42.47;19.42;;;;;;;;;;6220256;28;20065;-78
2022/03/25 00:11:19;;;;;;;43.17;19.98;;;;;;;;;;6236783;28;20442;-79
2022/03/25 00:14:21;;;;;;;50.70;20.52;;;;;;;;;;6229192;28;20050;-79
2022/03/25 00:17:24;;;;;;;41.50;18.60;;;;;;;;;;6213161;28;20076;-79
2022/03/25 00:20:26;;;;;;;42.00;18.60;;;;;;;;;;6211082;28;20057;-79
2022/03/25 00:23:27;;;;;;;37.30;18.27;;;;;;;;;;6214763;28;20116;-78
2022/03/25 00:26:29;;;;;;;40.63;18.33;;;;;;;;;;6253838;28;20669;-81
2022/03/25 00:29:32;;;;;;;49.20;18.47;;;;;;;;;;6247316;28;20103;-81
2022/03/25 00:32:35;;;;;;;39.80;17.17;;;;;;;;;;6210589;28;20441;-81
2022/03/25 00:35:37;;;;;;;40.75;17.85;;;;;;;;;;6230425;28;20056;-79
2022/03/25 00:38:39;;;;;;;44.47;18.52;;;;;;;;;;6213691;28;20415;-80
2022/03/25 00:41:41;;;;;;;41.75;17.83;;;;;;;;;;6211299;28;20046;-80
2022/03/25 00:44:44;;;;;;;43.13;18.27;;;;;;;;;;6219527;28;20061;-79
2022/03/25 00:47:46;;;;;;;42.97;17.80;;;;;;;;;;6228996;28;20395;-79
2022/03/25 00:50:47;;;;;;;41.75;17.15;;;;;;;;;;6232529;28;20159;-80
2022/03/25 00:53:49;;;;;;;38.50;16.60;;;;;;;;;;6267952;28;20041;-80
2022/03/25 00:56:51;;;;;;;39.75;17.90;;;;;;;;;;6251034;28;20045;-80
2022/03/25 00:59:54;;;;;;;42.05;18.20;;;;;;;;;;6227220;28;20049;-80
2022/03/25 01:02:55;;;;;;;41.40;17.83;;;;;;;;;;6232252;28;20041;-79
2022/03/25 01:05:57;;;;;;;42.83;17.35;;;;;;;;;;6228117;28;20054;-79
2022/03/25 01:09:00;;;;;;;41.45;17.77;;;;;;;;;;6230825;28;20530;-79
2022/03/25 01:12:02;;;;;;;44.17;17.92;;;;;;;;;;6210048;28;20049;-79
2022/03/25 01:15:05;;;;;;;45.30;18.45;;;;;;;;;;6209030;28;20049;-79
2022/03/25 01:18:06;;;;;;;43.43;18.63;;;;;;;;;;6236194;28;20053;-80
2022/03/25 01:21:09;;;;;;;43.03;18.37;;;;;;;;;;6211894;28;20132;-80
2022/03/25 01:24:11;;;;;;;39.13;17.55;;;;;;;;;;6230002;28;20060;-79
2022/03/25 01:27:12;;;;;;;41.88;18.10;;;;;;;;;;6220201;28;20050;-78
2022/03/25 01:30:14;;;;;;;43.78;18.40;;;;;;;;;;6232278;28;20557;-79
2022/03/25 01:33:16;;;;;;;43.38;17.85;;;;;;;;;;6233722;28;20042;-79
2022/03/25 01:36:19;;;;;;;45.50;19.75;;;;;;;;;;6216766;28;20427;-80
2022/03/25 01:39:20;;;;;;;46.25;19.88;;;;;;;;;;6221703;28;20045;-80
2022/03/25 01:42:30;;;;;;;46.10;20.15;;;;;;;;;;6213198;28;20512;-79
2022/03/25 01:45:34;;;;;;;49.13;20.45;;;;;;;;;;6213336;28;20058;-79
2022/03/25 01:48:36;;;;;;;46.70;19.85;;;;;;;;;;6213659;28;20053;-80
2022/03/25 01:51:38;;;;;;;44.35;19.65;;;;;;;;;;6238385;28;20087;-80
2022/03/25 01:54:40;;;;;;;48.17;20.02;;;;;;;;;;6228737;28;20037;-80
2022/03/25 01:57:43;;;;;;;51.15;20.83;;;;;;;;;;6216295;28;20054;-79
2022/03/25 02:00:46;;;;;;;47.53;19.67;;;;;;;;;;6210041;28;20049;-81
2022/03/25 02:03:49;;;;;;;47.25;18.80;;;;;;;;;;6244836;28;20118;-79
2022/03/25 02:06:51;;;;;;;44.80;18.90;;;;;;;;;;6214985;28;20080;-80
2022/03/25 02:09:53;;;;;;;45.65;18.65;;;;;;;;;;6236790;28;20108;-80
2022/03/25 02:12:55;;;;;;;46.25;18.73;;;;;;;;;;6226771;28;20050;-79
2022/03/25 02:15:57;;;;;;;42.72;19.02;;;;;;;;;;6211001;28;20050;-79
2022/03/25 02:18:59;;;;;;;44.28;18.25;;;;;;;;;;6230796;28;20474;-79
2022/03/25 02:22:01;;;;;;;40.93;17.50;;;;;;;;;;6210864;28;20046;-79
2022/03/25 02:25:10;;;;;;;46.20;18.95;;;;;;;;;;6230924;28;21443;-79
2022/03/25 02:28:14;;;;;;;42.45;17.75;;;;;;;;;;6269142;28;20042;-79
2022/03/25 02:31:19;;;;;;;45.20;18.08;;;;;;;;;;6232044;28;20056;-79
2022/03/25 02:34:21;;;;;;;43.70;17.90;;;;;;;;;;6239599;28;20175;-79
2022/03/25 02:37:25;;;;;;;45.90;18.73;;;;;;;;;;6217729;28;20069;-79
2022/03/25 02:40:26;;;;;;;48.25;20.13;;;;;;;;;;6236155;28;20561;-79
2022/03/25 02:43:28;;;;;;;47.85;18.17;;;;;;;;;;6231242;28;20045;-80
2022/03/25 02:46:39;;;;;;;45.80;19.17;;;;;;;;;;6249934;28;20045;-79
2022/03/25 02:49:41;;;;;;;47.50;19.70;;;;;;;;;;6226424;28;20050;-80
2022/03/25 02:52:43;;;;;;;48.28;17.63;;;;;;;;;;6237558;28;20061;-79
2022/03/25 02:55:45;;;;;;;43.72;17.38;;;;;;;;;;6218031;28;20220;-81
2022/03/25 02:58:47;;;;;;;41.40;17.35;;;;;;;;;;6226001;28;20565;-80
2022/03/25 03:01:48;;;;;;;42.97;18.10;;;;;;;;;;6237475;28;20054;-79
2022/03/25 03:04:50;;;;;;;46.33;18.98;;;;;;;;;;6234679;28;20149;-79
2022/03/25 03:07:52;;;;;;;44.55;18.55;;;;;;;;;;6238960;28;20487;-79
2022/03/25 03:10:54;;;;;;;47.58;19.63;;;;;;;;;;6195104;28;20534;-79
2022/03/25 03:13:55;;;;;;;43.10;18.40;;;;;;;;;;6230751;28;20059;-80
2022/03/25 03:16:57;;;;;;;47.53;19.65;;;;;;;;;;6243800;28;20052;-79
2022/03/25 03:20:00;;;;;;;48.08;18.45;;;;;;;;;;6243110;28;20091;-80
2022/03/25 03:23:01;;;;;;;44.87;19.00;;;;;;;;;;6221092;28;21014;-79
2022/03/25 03:26:03;;;;;;;45.47;17.88;;;;;;;;;;6230634;28;20100;-77
2022/03/25 03:29:06;;;;;;;43.17;17.83;;;;;;;;;;6230937;28;20668;-78
2022/03/25 03:32:10;;;;;;;41.75;17.33;;;;;;;;;;6239455;28;20041;-78
2022/03/25 03:35:13;;;;;;;42.95;17.50;;;;;;;;;;6240209;28;20659;-81
2022/03/25 03:38:15;;;;;;;48.05;18.73;;;;;;;;;;6228321;28;20105;-79
2022/03/25 03:41:17;;;;;;;48.78;19.90;;;;;;;;;;6218127;28;20088;-79
2022/03/25 03:44:18;;;;;;;43.47;18.88;;;;;;;;;;6218555;28;20037;-80
2022/03/25 03:47:20;;;;;;;43.72;17.00;;;;;;;;;;6219234;28;20101;-79
2022/03/25 03:50:21;;;;;;;41.25;16.42;;;;;;;;;;6218299;28;20041;-80
2022/03/25 03:53:23;;;;;;;39.13;16.48;;;;;;;;;;6215458;28;20129;-79
2022/03/25 03:56:25;;;;;;;44.30;17.48;;;;;;;;;;6213865;28;20196;-79
2022/03/25 03:59:26;;;;;;;43.88;17.25;;;;;;;;;;6215262;28;20129;-79
2022/03/25 04:02:28;;;;;;;37.25;15.93;;;;;;;;;;6215153;28;20123;-80
2022/03/25 04:05:31;;;;;;;42.20;17.52;;;;;;;;;;6217694;28;20046;-80
2022/03/25 04:08:34;;;;;;;41.88;17.30;;;;;;;;;;6217043;28;20092;-79
2022/03/25 04:11:36;;;;;;;45.67;16.63;;;;;;;;;;6217184;28;20045;-79
2022/03/25 04:14:38;;;;;;;43.53;16.33;;;;;;;;;;6215184;28;20131;-79
2022/03/25 04:17:41;;;;;;;39.35;16.42;;;;;;;;;;6233676;28;20628;-79
2022/03/25 04:20:43;;;;;;;;;;;;;;;;;;6216895;28;20065;-80
2022/03/25 04:23:45;;;;;;;40.90;15.35;;;;;;;;;;6230355;28;19925;-80
2022/03/25 04:26:46;;;;;;;46.08;18.17;;;;;;;;;;6247933;28;20062;-79
2022/03/25 04:29:48;;;;;;;42.10;17.02;;;;;;;;;;6235316;28;20045;-80
2022/03/25 04:32:50;;;;;;;42.67;16.35;;;;;;;;;;6217519;28;20268;-80
2022/03/25 04:35:52;;;;;;;42.92;16.95;;;;;;;;;;6216328;28;20111;-79
2022/03/25 04:38:53;;;;;;;46.25;18.30;;;;;;;;;;6222755;28;20049;-79
2022/03/25 04:41:55;;;;;;;42.17;17.05;;;;;;;;;;6241170;28;20156;-79
2022/03/25 04:44:57;;;;;;;41.40;17.38;;;;;;;;;;6237332;28;20095;-80
2022/03/25 04:47:59;;;;;;;41.47;16.50;;;;;;;;;;6236672;28;20119;-78
2022/03/25 04:51:01;;;;;;;47.38;17.13;;;;;;;;;;6240926;28;20046;-80
2022/03/25 04:54:03;;;;;;;38.20;16.50;;;;;;;;;;6238092;28;20191;-79
2022/03/25 04:57:05;;;;;;;44.80;17.38;;;;;;;;;;6232941;28;20224;-81
2022/03/25 05:00:09;;;;;;;43.28;17.67;;;;;;;;;;6235347;28;20081;-79
2022/03/25 05:03:11;;;;;;;46.53;17.75;;;;;;;;;;6239457;28;20572;-80
2022/03/25 05:06:13;;;;;;;38.83;16.67;;;;;;;;;;6231304;28;20534;-81
2022/03/25 05:09:15;;;;;;;38.38;17.13;;;;;;;;;;6214416;28;20466;-82
2022/03/25 05:12:17;;;;;;;43.67;16.95;;;;;;;;;;6233063;28;20069;-79
2022/03/25 05:15:18;;;;;;;38.58;16.23;;;;;;;;;;6233755;28;20101;-80
2022/03/25 05:18:23;;;;;;;42.88;16.77;;;;;;;;;;6237264;28;20124;-79
2022/03/25 05:21:24;;;;;;;45.33;17.40;;;;;;;;;;6220514;28;20073;-79
2022/03/25 05:24:26;;;;;;;40.13;17.90;;;;;;;;;;6216019;28;20049;-79
2022/03/25 05:27:28;;;;;;;43.03;17.88;;;;;;;;;;6216453;28;20073;-80
2022/03/25 05:30:31;;;;;;;46.25;18.40;;;;;;;;;;6235846;28;20486;-79
2022/03/25 05:33:33;;;;;;;39.67;16.38;;;;;;;;;;6241622;28;20625;-80
2022/03/25 05:36:35;;;;;;;43.40;17.40;;;;;;;;;;6237267;28;20049;-80
2022/03/25 05:39:37;;;;;;;44.55;18.38;;;;;;;;;;6218013;28;20555;-79
2022/03/25 05:42:40;;;;;;;45.42;17.23;;;;;;;;;;6217827;28;20502;-79
2022/03/25 05:45:41;;;;;;;42.65;18.10;;;;;;;;;;6241274;28;20048;-78
2022/03/25 05:48:44;;;;;;;40.70;16.88;;;;;;;;;;6240095;28;20537;-80
2022/03/25 05:51:46;;;;;;;46.00;18.63;;;;;;;;;;6222169;28;20061;-79
2022/03/25 05:54:47;;;;;;;40.83;17.63;;;;;;;;;;6230268;28;20048;-80
2022/03/25 05:57:49;;;;;;;45.20;19.25;;;;;;;;;;6220529;28;20106;-81
2022/03/25 06:00:50;;;;;;;44.17;16.98;;;;;;;;;;6219393;28;20038;-79
2022/03/25 06:03:52;;;;;;;37.70;16.73;;;;;;;;;;6219789;28;20046;-80
2022/03/25 06:06:54;;;;;;;36.45;15.52;;;;;;;;;;6218466;28;20042;-78
2022/03/25 06:09:56;;;;;;;39.92;16.13;;;;;;;;;;6221572;28;20393;-80
2022/03/25 06:12:57;;;;;;;43.60;16.40;;;;;;;;;;6238081;28;20161;-79
2022/03/25 06:15:59;;;;;;;43.05;17.67;;;;;;;;;;6214787;28;20084;-78
2022/03/25 06:19:01;;;;;;;40.90;16.88;;;;;;;;;;6214115;28;20051;-79
2022/03/25 06:22:03;;;;;;;43.20;18.02;;;;;;;;;;6220165;28;20136;-80
2022/03/25 06:25:05;;;;;;;41.65;17.75;;;;;;;;;;6217911;28;20058;-79
2022/03/25 06:28:07;;;;;;;46.80;17.90;;;;;;;;;;6199021;28;20606;-79
2022/03/25 06:31:09;;;;;;;43.38;17.08;;;;;;;;;;6219515;28;20041;-79
2022/03/25 06:34:10;;;;;;;42.58;19.17;;;;;;;;;;6219929;28;20125;-79
2022/03/25 06:37:12;;;;;;;38.92;16.52;;;;;;;;;;6225161;28;20572;-79
2022/03/25 06:40:15;;;;;;;40.60;16.33;;;;;;;;;;6244168;28;20134;-80
2022/03/25 06:43:17;;;;;;;38.50;16.40;;;;;;;;;;6237727;28;20547;-80
2022/03/25 06:46:19;;;;;;;42.90;16.40;;;;;;;;;;6225518;28;20045;-79
2022/03/25 06:49:20;;;;;;;40.60;16.50;;;;;;;;;;6243476;28;20053;-80
2022/03/25 06:52:22;;;;;;;39.90;16.60;;;;;;;;;;6254705;28;20064;-79
2022/03/25 06:55:24;;;;;;;37.33;15.32;;;;;;;;;;6221523;28;20077;-79
2022/03/25 06:58:26;;;;;;;36.28;15.80;;;;;;;;;;6223286;28;20553;-79
2022/03/25 07:01:31;;;;;;;40.55;16.88;;;;;;;;;;6241636;28;20038;-79
2022/03/25 07:04:33;;;;;;;33.65;16.25;;;;;;;;;;6241042;28;20045;-79
2022/03/25 07:07:36;;;;;;;37.80;16.40;;;;;;;;;;6240622;28;20041;-80
2022/03/25 07:10:38;;;;;;;41.08;17.85;;;;;;;;;;6242231;28;20072;-80
2022/03/25 07:13:40;;;;;;;38.92;16.08;;;;;;;;;;6240342;28;20126;-78
2022/03/25 07:16:43;;;;;;;41.65;17.60;;;;;;;;;;6239189;28;20057;-78
2022/03/25 07:19:45;;;;;;;42.33;18.15;;;;;;;;;;6237574;28;20048;-79
2022/03/25 07:22:48;;;;;;;40.30;17.42;;;;;;;;;;6233922;28;20107;-79
2022/03/25 07:25:50;;;;;;;36.65;16.83;;;;;;;;;;6213102;28;20185;-80
2022/03/25 07:28:52;;;;;;;42.42;18.10;;;;;;;;;;6223454;28;20037;-79
2022/03/25 07:31:54;;;;;;;34.10;16.23;;;;;;;;;;6237569;28;20115;-78
2022/03/25 07:34:56;;;;;;;38.28;17.48;;;;;;;;;;6237001;28;20060;-79
2022/03/25 07:37:57;;;;;;;39.80;18.40;;;;;;;;;;6236634;28;20065;-79
2022/03/25 07:40:59;;;;;;;42.38;18.08;;;;;;;;;;6237407;28;20789;-81
2022/03/25 07:44:01;;;;;;;35.08;16.67;;;;;;;;;;6237906;28;20080;-80
2022/03/25 07:47:03;;;;;;;35.97;16.48;;;;;;;;;;6239271;28;20095;-79
2022/03/25 07:50:05;;;;;;;37.85;17.17;;;;;;;;;;6238838;28;20125;-80
2022/03/25 07:53:06;;;;;;;39.47;16.75;;;;;;;;;;6224057;28;20519;-79
2022/03/25 07:56:10;;;;;;;33.53;15.98;;;;;;;;;;6212629;28;20482;-80
2022/03/25 07:59:12;;;;;;;34.17;16.23;;;;;;;;;;6214319;28;20125;-81
2022/03/25 08:02:14;;;;;;;34.28;16.27;;;;;;;;;;6214996;28;20030;-80
2022/03/25 08:05:16;;;;;;;39.65;17.98;;;;;;;;;;6242394;28;20052;-81
2022/03/25 08:08:20;;;;;;;45.53;21.15;;;;;;;;;;6229231;28;20629;-81
2022/03/25 08:11:22;;;;;;;41.20;20.77;;;;;;;;;;6224922;28;20128;-80
2022/03/25 08:14:24;;;;;;;37.13;18.83;;;;;;;;;;6231258;28;20124;-81
2022/03/25 08:17:25;;;;;;;38.45;18.10;;;;;;;;;;6237397;28;20053;-81
2022/03/25 08:20:41;;;;;;;36.20;16.52;;;;;;;;;;6264141;28;20049;-82
2022/03/25 08:30:29;;;;;;;35.22;17.10;;;;;;;;;;6214753;28;20110;-83
2022/03/25 08:33:31;;;;;;;40.65;18.45;;;;;;;;;;6217959;28;20061;-81
2022/03/25 08:36:32;;;;;;;33.78;16.75;;;;;;;;;;6217374;28;20133;-81
2022/03/25 08:39:34;;;;;;;33.78;17.00;;;;;;;;;;6225563;28;20053;-82
2022/03/25 08:42:36;;;;;;;32.55;15.90;;;;;;;;;;6239281;28;20061;-82
2022/03/25 08:45:38;;;;;;;34.33;16.58;;;;;;;;;;6235144;28;20038;-82
2022/03/25 08:48:40;;;;;;;28.83;16.35;;;;;;;;;;6226872;28;20674;-81
2022/03/25 08:51:42;;;;;;;35.72;17.38;;;;;;;;;;6214789;28;20120;-80
2022/03/25 08:54:44;;;;;;;34.87;18.17;;;;;;;;;;6217294;28;20095;-81
2022/03/25 08:57:47;;;;;;;38.67;17.52;;;;;;;;;;6213621;28;20171;-80
2022/03/25 09:00:49;;;;;;;41.03;19.98;;;;;;;;;;6213940;28;20121;-81
2022/03/25 09:03:50;;;;;;;40.13;18.15;;;;;;;;;;6215211;28;20050;-81
2022/03/25 09:06:52;;;;;;;35.90;18.40;;;;;;;;;;6214134;28;20056;-79
2022/03/25 09:09:54;;;;;;;40.50;20.67;;;;;;;;;;6211686;28;20660;-78
2022/03/25 09:12:55;;;;;;;43.53;20.23;;;;;;;;;;6188995;28;20070;-78
2022/03/25 09:15:57;;;;;;;45.13;20.17;;;;;;;;;;6212184;28;20497;-80
2022/03/25 09:18:59;;;;;;;42.75;21.40;;;;;;;;;;6209985;28;20054;-77
2022/03/25 09:22:01;;;;;;;40.63;20.40;;;;;;;;;;6212975;28;20050;-78
2022/03/25 09:25:04;;;;;;;38.83;20.38;;;;;;;;;;6204262;28;20076;-77
2022/03/25 09:28:06;;;;;;;39.85;20.13;;;;;;;;;;6207059;28;20049;-77
2022/03/25 09:31:07;;;;;;;41.80;20.95;;;;;;;;;;6233706;28;20114;-78
2022/03/25 09:37:33;;;;;;;41.42;20.58;;;;;;;;;;6214659;28;20111;-78
2022/03/25 09:40:35;;;;;;;43.10;21.13;;;;;;;;;;6211909;28;20180;-78
2022/03/25 09:43:37;;;;;;;38.38;19.80;;;;;;;;;;6218453;28;20069;-78
2022/03/25 09:46:42;;;;;;;45.35;21.38;;;;;;;;;;6238436;28;20044;-79
2022/03/25 09:49:44;;;;;;;45.70;22.55;;;;;;;;;;6237049;28;20068;-78
2022/03/25 09:52:46;;;;;;;40.53;20.73;;;;;;;;;;6228340;28;20046;-78
2022/03/25 09:56:06;;;;;;;41.90;21.85;;;;;;;;;;6215980;28;20050;-79
2022/03/25 09:59:09;;;;;;;44.90;21.55;;;;;;;;;;6216626;28;20470;-79
2022/03/25 10:02:11;;;;;;;40.83;20.80;;;;;;;;;;6216769;28;20061;-78
2022/03/25 10:05:21;;;;;;;45.50;21.95;;;;;;;;;;6218152;28;20953;-79
2022/03/25 10:08:30;;;;;;;44.45;24.35;;;;;;;;;;6218691;28;20046;-78
2022/03/25 10:11:32;;;;;;;42.72;21.80;;;;;;;;;;6218137;28;20046;-78
2022/03/25 10:14:34;;;;;;;39.05;22.05;;;;;;;;;;6231591;28;20053;-80
2022/03/25 10:17:47;;;;;;;42.38;23.75;;;;;;;;;;6241284;28;20122;-78
2022/03/25 10:20:53;;;;;;;40.50;21.95;;;;;;;;;;6238871;28;20069;-78
2022/03/25 10:23:54;;;;;;;40.92;22.55;;;;;;;;;;6219896;28;20042;-79
2022/03/25 10:27:04;;;;;;;41.40;22.42;;;;;;;;;;6219532;28;20143;-78
2022/03/25 10:30:06;;;;;;;43.00;21.50;;;;;;;;;;6237126;28;20053;-79
2022/03/25 10:33:09;;;;;;;43.88;22.35;;;;;;;;;;6243059;28;20099;-79
2022/03/25 10:36:14;;;;;;;40.58;22.38;;;;;;;;;;6236703;28;20125;-78
2022/03/25 10:39:27;;;;;;;40.03;22.55;;;;;;;;;;6219186;28;20519;-80
2022/03/25 10:42:28;;;;;;;40.47;20.95;;;;;;;;;;6218927;28;20073;-79
2022/03/25 10:45:39;;;;;;;36.65;21.20;;;;;;;;;;6230882;28;20045;-77
2022/03/25 10:48:52;;;;;;;40.08;21.52;;;;;;;;;;6222945;28;20618;-79
2022/03/25 10:51:56;;;;;;;41.95;22.15;;;;;;;;;;6232268;28;20136;-78
2022/03/25 10:55:21;;;;;;;37.47;20.98;;;;;;;;;;6218181;28;20104;-77
2022/03/25 10:58:26;;;;;;;42.60;22.88;;;;;;;;;;6221842;28;20046;-77
2022/03/25 11:01:28;;;;;;;41.30;21.80;;;;;;;;;;6241283;28;20203;-77
2022/03/25 11:04:31;;;;;;;37.87;21.37;;;;;;;;;;6225582;28;20042;-77
2022/03/25 11:07:32;;;;;;;39.03;21.10;;;;;;;;;;6215922;28;20050;-78
2022/03/25 11:10:35;;;;;;;37.95;21.50;;;;;;;;;;6233455;28;20179;-77
2022/03/25 11:13:37;;;;;;;41.38;21.45;;;;;;;;;;6240109;28;20587;-79
2022/03/25 11:16:43;;;;;;;39.13;20.27;;;;;;;;;;6241028;28;20087;-79
2022/03/25 11:19:46;;;;;;;43.17;22.08;;;;;;;;;;6236819;28;20101;-78
2022/03/25 11:22:53;;;;;;;;;;;;;;;;;;6231788;28;20303;-77
2022/03/25 11:25:57;;;;;;;42.83;21.67;;;;;;;;;;6216984;28;19922;-79
2022/03/25 11:29:01;;;;;;;42.33;21.58;;;;;;;;;;6227308;28;20194;-79
2022/03/25 11:32:04;;;;;;;38.08;21.98;;;;;;;;;;6217382;28;20525;-78
2022/03/25 11:35:05;;;;;;;35.50;21.15;;;;;;;;;;6241774;28;20071;-79
2022/03/25 11:38:10;;;;;;;43.10;22.75;;;;;;;;;;6235325;28;20076;-79
2022/03/25 11:41:23;;;;;;;40.15;23.15;;;;;;;;;;6192959;28;20066;-80
2022/03/25 11:44:25;;;;;;;40.22;21.60;;;;;;;;;;6228420;28;20108;-79
2022/03/25 11:47:27;;;;;;;37.83;22.45;;;;;;;;;;6223974;28;20101;-79
2022/03/25 11:50:38;;;;;;;42.40;23.08;;;;;;;;;;6241259;28;20044;-77
2022/03/25 11:53:40;;;;;;;36.42;21.58;;;;;;;;;;6214951;28;20116;-79
2022/03/25 11:56:48;;;;;;;40.75;22.35;;;;;;;;;;6216788;28;20571;-79
2022/03/25 12:00:12;;;;;;;44.60;24.10;;;;;;;;;;6215774;28;20304;-81
2022/03/25 12:03:18;;;;;;;37.42;22.67;;;;;;;;;;6215085;28;20034;-79
2022/03/25 12:06:22;;;;;;;39.67;23.27;;;;;;;;;;6215819;28;20045;-79
2022/03/25 12:09:36;;;;;;;38.05;22.48;;;;;;;;;;6240521;28;20041;-79
2022/03/25 12:12:57;;;;;;;39.85;22.15;;;;;;;;;;6221417;28;20058;-77
2022/03/25 12:15:59;;;;;;;38.88;22.63;;;;;;;;;;6217985;28;20061;-77
2022/03/25 12:19:01;;;;;;;39.17;23.57;;;;;;;;;;6216279;28;20666;-78
2022/03/25 12:22:02;;;;;;;38.35;22.92;;;;;;;;;;6215188;28;20109;-80
2022/03/25 12:25:17;;;;;;;43.47;23.85;;;;;;;;;;6241859;28;20117;-79
2022/03/25 12:28:23;;;;;;;39.20;22.38;;;;;;;;;;6241479;28;20041;-80
2022/03/25 12:31:25;;;;;;;39.65;22.90;;;;;;;;;;6240847;28;20049;-80
2022/03/25 12:34:36;;;;;;;38.15;22.25;;;;;;;;;;6240945;28;20532;-79
2022/03/25 12:38:10;;;;;;;40.75;21.80;;;;;;;;;;6239494;28;20136;-79
2022/03/25 12:41:25;;;;;;;38.83;24.20;;;;;;;;;;6242636;28;20102;-78
2022/03/25 12:44:53;;;;;;;41.03;23.02;;;;;;;;;;6223536;28;20042;-80
2022/03/25 12:47:56;;;;;;;41.40;23.55;;;;;;;;;;6238836;28;20129;-79
2022/03/25 12:51:03;;;;;;;44.63;23.15;;;;;;;;;;6240005;28;20042;-80
2022/03/25 12:54:17;;;;;;;37.00;21.98;;;;;;;;;;6243228;28;20103;-81
2022/03/25 12:57:30;;;;;;;38.20;22.50;;;;;;;;;;6218136;28;20132;-80
2022/03/25 13:00:41;;;;;;;39.85;23.02;;;;;;;;;;6231710;28;20125;-80
2022/03/25 13:03:47;;;;;;;40.00;23.48;;;;;;;;;;6218563;28;20053;-81
2022/03/25 13:06:50;;;;;;;36.67;22.73;;;;;;;;;;6227071;28;20179;-81
2022/03/25 13:09:54;;;;;;;41.38;22.80;;;;;;;;;;6239753;28;20107;-82
2022/03/25 13:12:59;;;;;;;38.88;22.23;;;;;;;;;;6218448;28;20114;-79
2022/03/25 13:16:02;;;;;;;39.40;21.83;;;;;;;;;;6242798;28;20041;-79
2022/03/25 13:19:03;;;;;;;38.40;20.98;;;;;;;;;;6256687;28;20119;-80
2022/03/25 13:22:18;;;;;;;35.35;20.98;;;;;;;;;;6239136;28;20113;-80
2022/03/25 13:25:31;;;;;;;34.97;20.60;;;;;;;;;;6240044;28;20073;-79
2022/03/25 13:28:35;;;;;;;;;;;;;;;;;;6234081;28;20038;-80
2022/03/25 13:31:36;;;;;;;35.35;19.25;;;;;;;;;;6216049;28;19921;-80
2022/03/25 13:34:38;;;;;;;38.35;20.60;;;;;;;;;;6230833;28;20495;-79
2022/03/25 13:37:40;;;;;;;36.75;20.98;;;;;;;;;;6230724;28;20124;-78
2022/03/25 13:40:52;;;;;;;35.45;21.05;;;;;;;;;;6246327;28;20172;-80
2022/03/25 13:44:02;;;;;;;38.57;21.57;;;;;;;;;;6234383;28;20049;-80
2022/03/25 13:47:07;;;;;;;37.20;19.95;;;;;;;;;;6220298;28;20527;-79
2022/03/25 13:50:17;;;;;;;34.35;19.05;;;;;;;;;;6220403;28;20061;-79
2022/03/25 13:53:36;;;;;;;32.67;18.83;;;;;;;;;;6237314;28;20192;-78
2022/03/25 13:56:42;;;;;;;36.28;19.85;;;;;;;;;;6244327;28;20495;-79
2022/03/25 13:59:44;;;;;;;34.95;19.40;;;;;;;;;;6244366;28;20042;-78
2022/03/25 14:02:46;;;;;;;30.55;18.38;;;;;;;;;;6242613;28;20069;-81
2022/03/25 14:05:47;;;;;;;33.10;18.00;;;;;;;;;;6237876;28;20085;-80
2022/03/25 14:08:51;;;;;;;31.40;17.88;;;;;;;;;;6222114;28;20440;-83
2022/03/25 14:11:53;;;;;;;29.52;18.65;;;;;;;;;;6221767;28;20069;-81
2022/03/25 14:15:00;;;;;;;29.97;18.03;;;;;;;;;;6220238;28;20120;-77
2022/03/25 14:18:02;;;;;;;33.33;18.75;;;;;;;;;;6244083;28;20125;-76
2022/03/25 14:21:04;;;;;;;29.90;17.48;;;;;;;;;;6227134;28;20102;-78
2022/03/25 14:27:26;;;;;;;28.85;16.88;;;;;;;;;;6217985;28;20050;-77
2022/03/25 14:30:29;;;;;;;29.10;16.42;;;;;;;;;;6196524;28;20071;-78
2022/03/25 14:33:31;;;;;;;26.75;16.38;;;;;;;;;;6243282;28;20033;-81
2022/03/25 14:36:32;;;;;;;33.28;17.98;;;;;;;;;;6242289;28;20415;-78
2022/03/25 14:39:35;;;;;;;33.50;17.73;;;;;;;;;;6230045;28;20046;-77
2022/03/25 14:42:37;;;;;;;;;;;;;;;;;;6210612;28;20042;-78
2022/03/25 14:45:38;;;;;;;30.05;17.08;;;;;;;;;;6213535;28;20024;-77
2022/03/25 14:48:40;;;;;;;31.73;17.25;;;;;;;;;;6217059;28;20445;-76
2022/03/25 14:51:43;;;;;;;30.35;16.90;;;;;;;;;;6220269;28;20045;-80
2022/03/25 14:54:45;;;;;;;34.80;18.17;;;;;;;;;;6235895;28;20354;-78
2022/03/25 14:57:48;;;;;;;33.60;17.77;;;;;;;;;;6213537;28;20085;-83
2022/03/25 15:00:49;;;;;;;29.10;17.40;;;;;;;;;;6215873;28;20127;-84
2022/03/25 15:03:51;;;;;;;29.27;15.60;;;;;;;;;;6222901;28;20112;-78
2022/03/25 15:06:53;;;;;;;31.98;16.90;;;;;;;;;;6230298;28;20049;-79
2022/03/25 15:09:55;;;;;;;29.10;16.77;;;;;;;;;;6245713;28;20045;-81
2022/03/25 15:12:59;;;;;;;29.67;16.65;;;;;;;;;;6208559;28;20066;-78
2022/03/25 15:16:00;;;;;;;28.52;16.45;;;;;;;;;;6212323;28;20064;-81
2022/03/25 15:19:02;;;;;;;28.53;16.20;;;;;;;;;;6213185;28;20073;-79
2022/03/25 15:22:05;;;;;;;30.85;16.52;;;;;;;;;;6231677;28;20102;-78
2022/03/25 15:25:08;;;;;;;32.25;17.45;;;;;;;;;;6235833;28;20060;-79
2022/03/25 15:28:10;;;;;;;31.00;17.52;;;;;;;;;;6232612;28;20076;-80
2022/03/25 15:34:34;;;;;;;33.97;17.83;;;;;;;;;;6223753;28;20041;-79
2022/03/25 15:37:55;;;;;;;30.73;16.13;;;;;;;;;;6243147;28;20077;-80
2022/03/25 15:40:57;;;;;;;30.48;17.35;;;;;;;;;;6235748;28;20675;-81
2022/03/25 15:43:59;;;;;;;30.40;16.67;;;;;;;;;;6240044;28;20045;-81
2022/03/25 15:47:02;;;;;;;32.70;17.38;;;;;;;;;;6231260;28;20319;-81
2022/03/25 15:50:04;;;;;;;;;;;;;;;;;;6220107;28;20066;-79
2022/03/25 15:53:06;;;;;;;28.83;15.85;;;;;;;;;;6232255;28;19928;-80
2022/03/25 15:56:07;;;;;;;33.70;15.77;;;;;;;;;;6216828;28;20056;-80
2022/03/25 15:59:09;;;;;;;31.35;16.33;;;;;;;;;;6212785;28;20101;-81
2022/03/25 16:02:11;;;;;;;31.13;15.80;;;;;;;;;;6229055;28;20128;-78
2022/03/25 16:05:13;;;;;;;30.10;15.63;;;;;;;;;;6212541;28;20655;-80
2022/03/25 16:08:15;;;;;;;34.47;16.60;;;;;;;;;;6214281;28;20046;-79
2022/03/25 16:11:17;;;;;;;29.40;15.77;;;;;;;;;;6223109;28;20470;-79
2022/03/25 16:14:20;;;;;;;31.10;15.43;;;;;;;;;;6238341;28;20133;-80
2022/03/25 16:17:32;;;;;;;29.35;15.18;;;;;;;;;;6222626;28;20049;-80
2022/03/25 16:20:35;;;;;;;27.38;15.52;;;;;;;;;;6192808;28;20775;-78
2022/03/25 16:23:37;;;;;;;30.75;15.40;;;;;;;;;;6239043;28;20200;-80
2022/03/25 16:26:39;;;;;;;26.50;13.60;;;;;;;;;;6240658;28;20073;-80
2022/03/25 16:29:40;;;;;;;25.48;13.63;;;;;;;;;;6209405;28;20046;-79
2022/03/25 16:32:43;;;;;;;29.42;13.52;;;;;;;;;;6229103;28;20045;-80
2022/03/25 16:35:46;;;;;;;25.30;13.00;;;;;;;;;;6237000;28;20133;-80
2022/03/25 16:38:48;;;;;;;29.25;13.57;;;;;;;;;;6198848;28;20046;-79
2022/03/25 16:41:51;;;;;;;27.98;13.15;;;;;;;;;;6218520;28;20045;-80
2022/03/25 16:44:53;;;;;;;25.00;12.93;;;;;;;;;;6229466;28;20053;-79
2022/03/25 16:47:55;;;;;;;26.88;12.73;;;;;;;;;;6239131;28;20124;-78
2022/03/25 16:50:57;;;;;;;27.10;13.88;;;;;;;;;;6239617;28;20052;-79
2022/03/25 16:54:00;;;;;;;23.13;12.07;;;;;;;;;;6229193;28;20057;-79
2022/03/25 16:57:02;;;;;;;23.10;11.65;;;;;;;;;;6245184;28;20053;-80
2022/03/25 17:00:05;;;;;;;22.20;10.20;;;;;;;;;;6224141;28;20854;-78
2022/03/25 17:03:07;;;;;;;26.35;10.60;;;;;;;;;;6215735;28;20107;-79
2022/03/25 17:06:08;;;;;;;23.42;10.55;;;;;;;;;;6217302;28;20056;-79
2022/03/25 17:09:10;;;;;;;23.75;9.95;;;;;;;;;;6215004;28;20050;-79
2022/03/25 17:12:12;;;;;;;20.63;10.13;;;;;;;;;;6216092;28;20558;-80
2022/03/25 17:15:13;;;;;;;21.42;9.02;;;;;;;;;;6213915;28;20038;-79
2022/03/25 17:18:15;;;;;;;19.00;8.70;;;;;;;;;;6223490;28;20083;-81
2022/03/25 17:21:17;;;;;;;20.92;10.10;;;;;;;;;;6215124;28;20050;-78
2022/03/25 17:24:19;;;;;;;19.25;10.02;;;;;;;;;;6213218;28;20034;-77
2022/03/25 17:27:21;;;;;;;17.83;8.83;;;;;;;;;;6191350;28;20480;-78
2022/03/25 17:30:24;;;;;;;21.95;10.60;;;;;;;;;;6199733;28;20193;-77
2022/03/25 17:33:25;;;;;;;;;;;;;;;;;;6229757;28;20129;-78
2022/03/25 17:36:27;;;;;;;22.05;10.07;;;;;;;;;;6239049;28;20335;-78
2022/03/25 17:39:30;;;;;;;20.92;9.23;;;;;;;;;;6221300;28;20046;-79
2022/03/25 17:42:32;;;;;;;21.35;9.73;;;;;;;;;;6231651;28;20686;-79
2022/03/25 17:45:34;;;;;;;20.55;9.35;;;;;;;;;;6214989;28;20105;-80
2022/03/25 17:48:36;;;;;;;25.77;8.90;;;;;;;;;;6236886;28;20724;-79
2022/03/25 17:51:38;;;;;;;22.63;8.60;;;;;;;;;;6237038;28;20160;-79
2022/03/25 17:54:39;;;;;;;24.30;10.18;;;;;;;;;;6236086;28;20115;-80
2022/03/25 17:57:41;;;;;;;26.52;11.15;;;;;;;;;;6219888;28;20050;-78
2022/03/25 18:00:47;;;;;;;25.02;11.52;;;;;;;;;;6212269;28;20044;-79
2022/03/25 18:03:48;;;;;;;33.60;15.95;;;;;;;;;;6232997;28;20045;-79
2022/03/25 18:06:50;;;;;;;30.15;13.52;;;;;;;;;;6219736;28;20045;-79